Home   Weather   Greece   Zakynthos   Past weeks
Flag for Greece

Past Weather in Zakynthos, Greece — Yesterday and Last 2 Weeks

Currently: 50 °F. Clear. (Weather station: Andravida Airport, Greece). See more current weather

Past Weather in Zakynthos — Graph

°F

Zakynthos Temperature Yesterday

Maximum temperature yesterday: 68 °F (at 1:20 pm)
Minimum temperature yesterday: 45 °F (at 5:50 am)
Average temperature yesterday: 56 °F

High & Low Weather Summary for the Past Weeks

 TemperatureHumidityPressure
High73 °F (Apr 4, 11:50 am)100% (Mar 29, 12:50 am)30.45 "Hg (Mar 29, 12:50 am)
Low34 °F (Apr 9, 6:50 am)26% (Apr 12, 4:20 pm)29.65 "Hg (Apr 6, 6:50 am)
Average56 °F71%30.08 "Hg
* Reported Mar 28 11:20 pm — Apr 12 11:20 pm, Zakynthos. Weather by CustomWeather, © 2021

Note: Actual official high and low records may vary slightly from our data, if they occured in-between our weather recording intervals... More about our weather records

Zakynthos Weather History for the Previous 24 Hours

Scroll right to see more
 ConditionsComfort  
Time TempWeatherWind HumidityBarometerVisibility
11:20 pm
Mon, Apr 12
52 °FClear.3 mph88%30.18 "Hg10 mi
10:50 pm52 °FClear.No wind88%30.18 "Hg10 mi
10:20 pm52 °FClear.No wind88%30.18 "Hg10 mi
9:50 pm54 °FClear.No wind82%30.18 "Hg10 mi
9:20 pm54 °FClear.3 mph82%30.18 "Hg10 mi
8:50 pm55 °FClear.3 mph82%30.18 "Hg10 mi
8:20 pm57 °FClear.5 mph77%30.18 "Hg10 mi
7:50 pm59 °FSunny.3 mph72%30.18 "Hg10 mi
7:20 pm61 °FSunny.5 mph68%30.18 "Hg10 mi
6:50 pm63 °FSunny.7 mph59%30.18 "Hg10 mi
6:20 pm64 °FSunny.9 mph56%30.18 "Hg10 mi
5:50 pm64 °FSunny.12 mph49%30.18 "Hg10 mi
5:20 pm66 °FSunny.9 mph46%30.18 "Hg10 mi
4:50 pm68 °FSunny.8 mph33%30.18 "Hg10 mi
4:20 pm68 °FSunny.7 mph26%30.18 "Hg10 mi
3:50 pm68 °FSunny.6 mph33%30.18 "Hg10 mi
3:20 pm66 °FSunny.6 mph56%30.18 "Hg10 mi
2:50 pm66 °FSunny.7 mph56%30.21 "Hg10 mi
2:20 pm66 °FSunny.9 mph56%30.21 "Hg10 mi
1:50 pm66 °FSunny.10 mph56%30.21 "Hg10 mi
1:20 pm68 °FSunny.5 mph53%30.21 "Hg10 mi
12:50 pm66 °FSunny.8 mph56%30.21 "Hg10 mi
12:20 pm66 °FSunny.5 mph56%30.21 "Hg10 mi
11:50 am66 °FSunny.No wind43%30.21 "Hg10 mi
11:20 am64 °FSunny.3 mph49%30.24 "Hg10 mi
10:50 am63 °FSunny.No wind56%30.24 "Hg10 mi
10:20 am61 °FSunny.No wind59%30.24 "Hg10 mi
9:50 am61 °FSunny.No wind68%30.24 "Hg10 mi
9:20 am57 °FSunny.No wind72%30.24 "Hg10 mi
8:50 am54 °FSunny.No wind82%30.24 "Hg10 mi
8:20 am48 °FSunny.3 mph87%30.24 "Hg10 mi
7:50 am46 °FSunny.5 mph87%30.24 "Hg10 mi
7:20 am45 °FSunny.5 mph93%30.24 "Hg10 mi
6:50 am45 °FClear.No wind93%30.24 "Hg10 mi
6:20 am45 °FClear.3 mph93%30.24 "Hg10 mi
5:50 am45 °FPassing clouds.3 mph93%30.24 "HgN/A
5:20 am46 °FPassing clouds.3 mph87%30.24 "HgN/A
4:50 am46 °FClear.3 mph87%30.24 "Hg10 mi
4:20 am46 °FClear.5 mph87%30.24 "Hg10 mi
3:50 am46 °FClear.3 mph87%30.24 "Hg10 mi
3:20 am46 °FClear.3 mph93%30.24 "Hg10 mi
2:50 am46 °FClear.3 mph93%30.24 "Hg10 mi
2:20 am46 °FPassing clouds.3 mph93%30.24 "HgN/A
1:50 am46 °FPassing clouds.3 mph93%30.27 "HgN/A
1:20 am48 °FPassing clouds.No wind87%30.27 "HgN/A
Weather by CustomWeather, © 2021

See weather overview